Time;durP1;ratioP1;P1;durP2;ratioP2;P2;SDS_P1;SDS_P2;PMS_P1;PMS_P2;Temp;Humidity;BMP_temperature;BMP_pressure;BME280_temperature;BME280_humidity;BME280_pressure;Samples;Min_cycle;Max_cycle;Signal;HPM_P1;HPM_P2
2022/12/18 00:02:04;;;;;;;16.10;8.57;;;-3.50;99.90;;;;;;5052759;28;20082;-65
2022/12/18 00:04:30;;;;;;;22.40;11.90;;;-3.50;99.90;;;;;;5034779;28;20130;-65
2022/12/18 00:06:55;;;;;;;22.05;10.93;;;-3.50;99.90;;;;;;5034633;28;20048;-65
2022/12/18 00:09:21;;;;;;;16.20;8.52;;;-3.50;99.90;;;;;;5052511;28;20059;-65
2022/12/18 00:11:47;;;;;;;28.52;11.48;;;-3.60;99.90;;;;;;5052760;28;20099;-65
2022/12/18 00:14:13;;;;;;;16.27;8.50;;;-3.60;99.90;;;;;;5052409;28;20117;-65
2022/12/18 00:16:39;;;;;;;12.18;7.60;;;-3.60;99.90;;;;;;5052569;28;20041;-65
2022/12/18 00:19:07;;;;;;;23.80;11.55;;;-3.70;99.90;;;;;;5052696;28;20037;-62
2022/12/18 00:21:33;;;;;;;25.65;10.60;;;-3.70;99.90;;;;;;5052680;28;20102;-62
2022/12/18 00:24:00;;;;;;;22.10;8.10;;;-3.70;99.90;;;;;;5034536;28;20396;-62
2022/12/18 00:26:29;;;;;;;14.48;10.55;;;-3.80;99.90;;;;;;5018024;28;20041;-63
2022/12/18 00:28:57;;;;;;;18.08;8.60;;;-3.30;99.90;;;;;;5052588;28;20051;-63
2022/12/18 00:31:24;;;;;;;28.58;12.18;;;-3.80;99.90;;;;;;5052278;28;20041;-64
2022/12/18 00:33:50;;;;;;;31.90;13.27;;;-3.80;99.90;;;;;;5034447;28;20049;-63
2022/12/18 00:36:21;;;;;;;37.97;13.20;;;-3.80;99.90;;;;;;5052123;28;20037;-62
2022/12/18 00:38:47;;;;;;;29.27;13.68;;;-3.80;99.90;;;;;;5034912;28;20045;-63
2022/12/18 00:43:59;;;;;;;29.23;13.57;;;-3.80;99.90;;;;;;5056206;28;20475;-62
2022/12/18 00:46:24;;;;;;;28.80;12.75;;;-3.80;99.90;;;;;;5037915;28;20083;-63
2022/12/18 00:48:50;;;;;;;30.35;14.57;;;-3.80;99.90;;;;;;5056086;28;20522;-63
2022/12/18 00:51:16;;;;;;;35.97;15.07;;;-3.80;99.90;;;;;;5055990;28;20484;-62
2022/12/18 00:53:41;;;;;;;25.88;11.35;;;-3.80;99.90;;;;;;5038103;28;20041;-62
2022/12/18 00:56:07;;;;;;;44.13;16.02;;;-3.80;99.90;;;;;;5055897;28;20396;-68
2022/12/18 00:58:35;;;;;;;32.05;14.35;;;-3.80;99.90;;;;;;5037730;28;20063;-68
2022/12/18 01:01:01;;;;;;;33.45;14.05;;;-3.50;99.90;;;;;;5055508;28;20041;-69
2022/12/18 01:03:26;;;;;;;33.30;14.27;;;-3.80;99.90;;;;;;5055481;28;20091;-70
2022/12/18 01:05:52;;;;;;;44.95;14.27;;;-3.80;99.90;;;;;;5055345;28;20044;-68
2022/12/18 01:08:17;;;;;;;27.70;14.53;;;-3.80;99.90;;;;;;5055685;28;20057;-68
2022/12/18 01:10:43;;;;;;;39.70;13.82;;;-3.80;99.90;;;;;;5037551;28;20495;-68
2022/12/18 01:13:08;;;;;;;27.35;12.80;;;-3.80;99.90;;;;;;5055598;28;20060;-68
2022/12/18 01:15:34;;;;;;;30.27;13.98;;;-3.80;99.90;;;;;;5055464;28;20181;-68
2022/12/18 01:18:00;;;;;;;28.38;11.98;;;-3.80;99.90;;;;;;5055504;28;20041;-68
2022/12/18 01:20:25;;;;;;;33.22;14.55;;;-3.80;99.90;;;;;;5055118;28;20563;-68
2022/12/18 01:22:51;;;;;;;36.72;13.50;;;-3.80;99.90;;;;;;5055418;28;20033;-68
2022/12/18 01:25:16;;;;;;;32.60;14.48;;;-3.80;99.90;;;;;;5055406;28;20037;-68
2022/12/18 01:27:42;;;;;;;31.42;13.63;;;-3.80;99.90;;;;;;5055016;28;20045;-68
2022/12/18 01:30:08;;;;;;;33.75;14.00;;;-3.80;99.90;;;;;;5055319;28;20047;-68
2022/12/18 01:32:33;;;;;;;29.77;13.00;;;-3.80;99.90;;;;;;5055201;28;20072;-68
2022/12/18 01:34:59;;;;;;;34.08;15.43;;;-3.80;99.90;;;;;;5054944;28;20045;-67
2022/12/18 01:37:25;;;;;;;29.27;14.43;;;-3.80;99.90;;;;;;5037045;28;20043;-69
2022/12/18 01:39:54;;;;;;;30.58;12.48;;;-3.50;99.90;;;;;;5055134;28;20460;-69
2022/12/18 01:42:20;;;;;;;25.73;12.95;;;-3.90;99.90;;;;;;5036989;28;20049;-68
2022/12/18 01:45:13;;;;;;;35.78;13.43;;;-3.90;99.90;;;;;;5055029;28;20080;-68
2022/12/18 01:47:52;;;;;;;32.28;15.75;;;-3.90;99.90;;;;;;5054961;28;20076;-68
2022/12/18 01:50:39;;;;;;;26.92;13.68;;;-4.00;99.90;;;;;;5036805;28;20045;-68
2022/12/18 01:53:07;;;;;;;34.28;13.98;;;-4.00;99.90;;;;;;5054864;28;20049;-68
2022/12/18 01:55:55;;;;;;;23.50;11.02;;;-4.10;99.90;;;;;;5036523;28;20048;-69
2022/12/18 01:58:35;;;;;;;43.08;17.08;;;-4.10;99.90;;;;;;5036668;28;20413;-68
2022/12/18 02:01:01;;;;;;;35.15;12.63;;;-4.10;99.90;;;;;;5054369;28;20443;-69
2022/12/18 02:03:26;;;;;;;26.67;13.30;;;-3.70;99.90;;;;;;5020258;28;20067;-69
2022/12/18 02:06:17;;;;;;;31.73;14.70;;;-3.80;99.90;;;;;;5054209;28;20068;-69
2022/12/18 02:09:09;;;;;;;22.02;15.57;;;-4.20;99.90;;;;;;5036377;28;20053;-68
2022/12/18 02:11:46;;;;;;;25.05;14.38;;;-4.20;99.90;;;;;;5054321;28;20037;-68
2022/12/18 02:14:28;;;;;;;27.63;13.23;;;-4.30;99.90;;;;;;5054474;28;20502;-68
2022/12/18 02:16:58;;;;;;;;;;;-4.30;99.90;;;;;;5054357;28;20043;-68
2022/12/18 02:19:42;;;;;;;29.30;12.73;;;-4.30;99.90;;;;;;5054335;28;19924;-68
2022/12/18 02:22:20;;;;;;;32.93;16.70;;;-4.30;99.90;;;;;;5054234;28;20041;-68
2022/12/18 02:25:15;;;;;;;32.60;17.17;;;-4.40;99.90;;;;;;5036077;28;20068;-68
2022/12/18 02:27:44;;;;;;;16.27;12.10;;;-4.30;99.90;;;;;;5036163;28;20071;-68
2022/12/18 02:30:10;;;;;;;30.10;15.02;;;-4.30;99.90;;;;;;5054158;28;20037;-68
2022/12/18 02:32:44;;;;;;;23.13;9.83;;;-4.40;99.90;;;;;;5035919;28;20048;-68
2022/12/18 02:35:15;;;;;;;32.13;16.10;;;-4.40;99.90;;;;;;5054079;28;20037;-68
2022/12/18 02:37:43;;;;;;;33.72;14.82;;;-4.40;99.90;;;;;;5035788;28;20143;-68
2022/12/18 02:40:11;;;;;;;27.07;14.17;;;-4.40;99.90;;;;;;5035815;28;20049;-68
2022/12/18 02:42:36;;;;;;;27.43;14.73;;;-4.50;99.90;;;;;;5035727;28;20045;-68
2022/12/18 02:45:02;;;;;;;27.47;13.70;;;-4.50;99.90;;;;;;5053793;28;20036;-68
2022/12/18 02:47:32;;;;;;;27.53;13.20;;;-4.50;99.90;;;;;;5053454;28;20076;-68
2022/12/18 02:50:07;;;;;;;19.37;9.87;;;-4.50;99.90;;;;;;5053546;28;20033;-68
2022/12/18 02:52:47;;;;;;;29.77;11.77;;;-4.60;99.90;;;;;;5053771;28;20080;-68
2022/12/18 02:55:44;;;;;;;30.05;15.32;;;-4.60;99.90;;;;;;5053734;28;20082;-68
2022/12/18 02:58:17;;;;;;;23.73;14.20;;;-4.60;99.90;;;;;;5035798;28;20507;-68
2022/12/18 03:00:53;;;;;;;24.60;14.70;;;-4.70;99.90;;;;;;5053564;28;20408;-68
2022/12/18 03:03:29;;;;;;;34.70;14.40;;;-4.60;99.90;;;;;;5034947;28;20033;-68
2022/12/18 03:06:01;;;;;;;34.33;14.57;;;-4.70;99.90;;;;;;5052981;28;20111;-68
2022/12/18 03:08:37;;;;;;;21.07;12.77;;;-4.60;99.90;;;;;;5053455;28;20037;-68
2022/12/18 03:11:07;;;;;;;30.57;13.83;;;-4.70;99.90;;;;;;5035533;28;20037;-68
2022/12/18 03:13:39;;;;;;;25.60;13.20;;;-4.70;99.90;;;;;;5053375;28;20041;-68
2022/12/18 03:16:07;;;;;;;30.63;14.70;;;-4.80;99.90;;;;;;5035410;28;20090;-68
2022/12/18 03:18:43;;;;;;;15.73;9.87;;;-4.80;99.90;;;;;;5035388;28;20033;-68
2022/12/18 03:21:11;;;;;;;14.90;10.03;;;-4.80;99.90;;;;;;5035424;28;20086;-68
2022/12/18 03:23:43;;;;;;;36.50;15.87;;;-4.80;99.90;;;;;;5052923;28;20077;-68
2022/12/18 03:26:15;;;;;;;20.83;10.20;;;-4.80;99.90;;;;;;5053221;28;20064;-68
2022/12/18 03:28:48;;;;;;;24.97;11.70;;;-4.90;99.90;;;;;;5035007;28;20084;-68
2022/12/18 03:31:14;;;;;;;25.37;13.93;;;-4.80;99.90;;;;;;5052894;28;20128;-68
2022/12/18 03:33:55;;;;;;;24.70;13.63;;;-4.90;99.90;;;;;;5053109;28;20029;-68
2022/12/18 03:36:22;;;;;;;18.87;11.83;;;-4.90;99.90;;;;;;5034895;28;20071;-68
2022/12/18 03:38:47;;;;;;;19.47;11.13;;;-4.90;99.90;;;;;;5053018;28;20052;-68
2022/12/18 03:41:33;;;;;;;24.57;10.50;;;-4.90;99.90;;;;;;5053084;28;20535;-68
2022/12/18 03:44:20;;;;;;;15.67;10.40;;;-5.00;99.90;;;;;;5052998;28;20535;-68
2022/12/18 03:47:03;;;;;;;21.33;10.83;;;-5.00;99.90;;;;;;5036307;28;20055;-68
2022/12/18 03:49:50;;;;;;;16.73;9.90;;;-5.00;99.90;;;;;;5052957;28;20102;-69
2022/12/18 03:52:42;;;;;;;23.60;12.57;;;-5.00;99.90;;;;;;5052662;28;20119;-68
2022/12/18 03:55:10;;;;;;;19.30;9.07;;;-5.00;99.90;;;;;;5052601;28;20037;-68
2022/12/18 03:57:36;;;;;;;28.60;12.43;;;-5.00;99.90;;;;;;5052335;28;20079;-69
2022/12/18 04:00:14;;;;;;;15.20;7.67;;;-5.00;99.90;;;;;;5052707;28;20063;-68
2022/12/18 04:02:45;;;;;;;24.50;10.57;;;-5.10;99.90;;;;;;5052619;28;20029;-68
2022/12/18 04:05:12;;;;;;;26.27;14.82;;;-5.10;99.90;;;;;;5052420;28;20443;-68
2022/12/18 04:07:39;;;;;;;21.57;10.87;;;-5.10;99.90;;;;;;5052395;28;20045;-68
2022/12/18 04:10:07;;;;;;;14.70;9.50;;;-5.10;99.90;;;;;;5034696;28;20037;-68
2022/12/18 04:12:33;;;;;;;25.63;10.30;;;-5.10;99.90;;;;;;5052842;28;20047;-68
2022/12/18 04:14:58;;;;;;;14.90;10.70;;;-4.70;99.90;;;;;;5038539;28;20403;-68
2022/12/18 04:17:24;;;;;;;20.23;11.80;;;-5.20;99.90;;;;;;5056445;28;20087;-68
2022/12/18 04:19:50;;;;;;;18.37;9.77;;;-5.10;99.90;;;;;;5056494;28;20041;-69
2022/12/18 04:22:16;;;;;;;15.67;5.67;;;-5.20;99.90;;;;;;5038498;28;20037;-65
2022/12/18 04:24:41;;;;;;;21.67;7.50;;;-5.20;99.90;;;;;;5056212;28;20041;-65
2022/12/18 04:27:07;;;;;;;15.87;8.33;;;-4.80;99.90;;;;;;5038710;28;20044;-69
2022/12/18 04:29:33;;;;;;;11.17;7.60;;;-5.20;99.90;;;;;;5056356;28;20052;-69
2022/12/18 04:31:59;;;;;;;18.53;9.30;;;-5.20;99.90;;;;;;5056388;28;20056;-69
2022/12/18 04:34:24;;;;;;;12.37;7.67;;;-5.30;99.90;;;;;;5038141;28;20125;-69
2022/12/18 04:36:50;;;;;;;15.17;9.30;;;-5.20;99.90;;;;;;5038146;28;20037;-69
2022/12/18 04:39:19;;;;;;;8.93;7.20;;;-5.20;99.90;;;;;;5038346;28;20500;-69
2022/12/18 04:41:45;;;;;;;14.60;7.07;;;-5.00;99.90;;;;;;5037996;28;20142;-70
2022/12/18 04:44:10;;;;;;;14.97;7.00;;;-4.80;99.90;;;;;;5038337;28;20076;-69
2022/12/18 04:46:36;;;;;;;17.53;8.00;;;-5.20;99.90;;;;;;5056079;28;20080;-69
2022/12/18 04:49:01;;;;;;;9.83;8.53;;;-5.20;99.90;;;;;;5037962;28;20488;-69
2022/12/18 04:51:27;;;;;;;10.67;9.47;;;-5.20;99.90;;;;;;5055945;28;20558;-69
2022/12/18 04:53:53;;;;;;;8.60;6.57;;;-5.20;99.90;;;;;;5055932;28;20043;-69
2022/12/18 04:56:18;;;;;;;14.23;8.90;;;-5.10;99.90;;;;;;5055531;28;20032;-69
2022/12/18 04:58:45;;;;;;;16.10;6.93;;;-5.30;99.90;;;;;;5037651;28;20086;-69
2022/12/18 05:01:12;;;;;;;14.23;8.63;;;-5.30;99.90;;;;;;5021277;28;20095;-69
2022/12/18 05:03:38;;;;;;;17.20;8.00;;;-4.80;99.90;;;;;;5037648;28;20087;-69
2022/12/18 05:06:05;;;;;;;18.20;10.10;;;-5.00;99.90;;;;;;5037487;28;20056;-69
2022/12/18 05:08:30;;;;;;;14.77;7.70;;;-5.40;99.90;;;;;;5021090;28;20474;-69
2022/12/18 05:11:03;;;;;;;16.73;8.63;;;-4.90;99.90;;;;;;5055707;28;20136;-69
2022/12/18 05:13:29;;;;;;;19.07;10.23;;;-5.50;99.90;;;;;;5037708;28;20408;-69
2022/12/18 05:15:55;;;;;;;19.60;11.00;;;-5.50;99.90;;;;;;5055522;28;20041;-69
2022/12/18 05:18:22;;;;;;;17.63;8.17;;;-5.50;99.90;;;;;;5037320;28;20052;-69
2022/12/18 05:20:49;;;;;;;12.57;8.73;;;-5.20;99.90;;;;;;5037299;28;20041;-69
2022/12/18 05:23:15;;;;;;;14.67;8.60;;;-5.50;99.90;;;;;;5037583;28;20045;-69
2022/12/18 05:25:40;;;;;;;20.37;9.40;;;-5.50;99.90;;;;;;5036613;28;20041;-69
2022/12/18 05:28:06;;;;;;;8.37;7.20;;;-5.60;99.90;;;;;;5037205;28;20040;-68
2022/12/18 05:30:31;;;;;;;20.40;9.90;;;-5.60;99.90;;;;;;5037136;28;20115;-69
2022/12/18 05:32:57;;;;;;;16.77;8.77;;;-5.60;99.90;;;;;;5037028;28;20401;-69
2022/12/18 05:35:22;;;;;;;17.33;7.73;;;-5.60;99.90;;;;;;5037109;28;20128;-68
2022/12/18 05:37:48;;;;;;;13.77;7.90;;;-5.60;99.90;;;;;;5054705;28;20029;-70
2022/12/18 05:40:14;;;;;;;15.87;6.97;;;-5.20;99.90;;;;;;5036975;28;20041;-69
2022/12/18 05:42:39;;;;;;;14.27;9.17;;;-5.60;99.90;;;;;;5055054;28;20044;-68
2022/12/18 05:45:06;;;;;;;10.60;6.93;;;-5.60;99.90;;;;;;5037179;28;20063;-68
2022/12/18 05:47:31;;;;;;;15.93;7.40;;;-5.60;99.90;;;;;;5054989;28;20033;-68
2022/12/18 05:49:57;;;;;;;17.67;8.53;;;-5.60;99.90;;;;;;5037150;28;20459;-69
2022/12/18 05:52:22;;;;;;;11.77;7.33;;;-5.40;99.90;;;;;;5036996;28;20050;-69
2022/12/18 05:54:48;;;;;;;10.90;6.70;;;-5.70;99.90;;;;;;5037020;28;20045;-68
2022/12/18 05:57:14;;;;;;;9.63;6.80;;;-5.60;99.90;;;;;;5036632;28;20080;-69
2022/12/18 05:59:39;;;;;;;8.67;7.37;;;-5.70;99.90;;;;;;5036650;28;20094;-68
2022/12/18 06:02:05;;;;;;;19.27;7.87;;;-5.70;99.90;;;;;;5036634;28;20033;-68
2022/12/18 06:04:31;;;;;;;12.33;7.87;;;-5.70;99.90;;;;;;5036348;28;20480;-68
2022/12/18 06:06:57;;;;;;;14.13;8.80;;;-5.70;99.90;;;;;;5036550;28;20419;-70
2022/12/18 06:09:23;;;;;;;10.27;7.07;;;-5.50;99.90;;;;;;5054913;28;20039;-69
2022/12/18 06:11:50;;;;;;;13.70;8.60;;;-5.70;99.90;;;;;;5054511;28;20438;-69
2022/12/18 06:14:17;;;;;;;13.20;8.10;;;-5.70;99.90;;;;;;5036441;28;20519;-69
2022/12/18 06:16:42;;;;;;;20.10;8.53;;;-5.70;99.90;;;;;;5019727;28;20159;-69
2022/12/18 06:19:13;;;;;;;17.50;8.07;;;-5.30;99.90;;;;;;5054373;28;20081;-69
2022/12/18 06:21:38;;;;;;;14.20;8.70;;;-5.40;99.90;;;;;;5019815;28;20464;-68
2022/12/18 06:24:04;;;;;;;13.10;8.57;;;-5.70;99.90;;;;;;5036146;28;20080;-68
2022/12/18 06:26:30;;;;;;;14.50;6.73;;;-5.80;99.90;;;;;;5036082;28;20044;-69
2022/12/18 06:28:55;;;;;;;17.73;8.90;;;-5.30;99.90;;;;;;5019445;28;20095;-69
2022/12/18 06:31:21;;;;;;;15.77;7.70;;;-5.90;99.90;;;;;;5054204;28;20068;-68
2022/12/18 06:33:47;;;;;;;12.33;8.80;;;-6.00;99.90;;;;;;5035832;28;20091;-68
2022/12/18 06:36:13;;;;;;;12.17;7.43;;;-6.00;99.90;;;;;;5035424;28;20116;-68
2022/12/18 06:38:41;;;;;;;12.13;7.33;;;-5.60;99.90;;;;;;5053857;28;20377;-67
2022/12/18 06:41:13;;;;;;;10.60;6.53;;;-6.10;99.90;;;;;;5053957;28;20075;-67
2022/12/18 06:43:38;;;;;;;13.83;6.97;;;-6.10;99.90;;;;;;5052375;28;20165;-68
2022/12/18 06:46:04;;;;;;;23.13;10.57;;;-6.20;99.90;;;;;;5036035;28;20053;-68
2022/12/18 06:48:31;;;;;;;15.93;8.40;;;-6.10;99.90;;;;;;5053795;28;20044;-68
2022/12/18 06:50:56;;;;;;;13.00;7.93;;;-6.20;99.90;;;;;;5019126;28;20037;-68
2022/12/18 06:53:22;;;;;;;17.00;8.57;;;-6.30;99.90;;;;;;5035593;28;20580;-68
2022/12/18 06:55:47;;;;;;;12.40;8.90;;;-6.30;99.90;;;;;;5053617;28;20040;-68
2022/12/18 06:58:13;;;;;;;10.17;6.37;;;-6.10;99.90;;;;;;5035545;28;20049;-69
2022/12/18 07:00:39;;;;;;;11.20;6.53;;;-6.40;99.90;;;;;;5035793;28;20041;-68
2022/12/18 07:03:04;;;;;;;8.43;5.67;;;-5.40;99.90;;;;;;5035359;28;20041;-69
2022/12/18 07:05:30;;;;;;;12.07;8.63;;;-6.40;99.90;;;;;;5035400;28;20065;-70
2022/12/18 07:07:56;;;;;;;16.60;7.93;;;-6.40;99.90;;;;;;5035435;28;20044;-69
2022/12/18 07:10:21;;;;;;;13.30;8.13;;;-6.50;99.90;;;;;;5035568;28;20045;-69
2022/12/18 07:12:47;;;;;;;16.53;9.87;;;-6.50;99.90;;;;;;5035582;28;20032;-69
2022/12/18 07:15:13;;;;;;;11.97;7.23;;;-6.60;99.90;;;;;;5035574;28;20044;-69
2022/12/18 07:17:38;;;;;;;13.03;7.77;;;-6.60;99.90;;;;;;5035237;28;20040;-69
2022/12/18 07:20:04;;;;;;;8.43;5.40;;;-6.60;99.90;;;;;;5018705;28;20049;-69
2022/12/18 07:22:30;;;;;;;8.57;5.73;;;-6.60;99.90;;;;;;5035182;28;20119;-67
2022/12/18 07:24:56;;;;;;;11.33;6.07;;;-6.60;99.90;;;;;;5053017;28;20037;-67
2022/12/18 07:27:22;;;;;;;9.10;6.20;;;-6.70;99.90;;;;;;5035258;28;20037;-66
2022/12/18 07:29:47;;;;;;;7.73;5.77;;;-6.70;99.90;;;;;;5052730;28;20369;-67
2022/12/18 07:32:13;;;;;;;7.97;6.53;;;-6.70;99.90;;;;;;5017604;28;20095;-67
2022/12/18 07:34:39;;;;;;;14.13;6.83;;;-6.70;99.90;;;;;;5033976;28;20059;-67
2022/12/18 07:37:04;;;;;;;8.23;4.37;;;-6.60;99.90;;;;;;5051788;28;20484;-67
2022/12/18 07:39:30;;;;;;;10.07;6.93;;;-6.60;99.90;;;;;;5051817;28;20037;-66
2022/12/18 07:44:40;;;;;;;10.20;7.20;;;-6.70;99.90;;;;;;5051750;28;20459;-66
2022/12/18 07:47:06;;;;;;;8.27;5.70;;;-6.60;99.90;;;;;;5034160;28;20041;-67
2022/12/18 07:49:31;;;;;;;11.17;6.47;;;-6.60;99.90;;;;;;5051770;28;20045;-67
2022/12/18 07:51:57;;;;;;;11.17;7.40;;;-6.60;99.90;;;;;;5051735;28;20472;-66
2022/12/18 07:54:24;;;;;;;8.33;5.07;;;-6.60;99.90;;;;;;5051665;28;20043;-65
2022/12/18 07:56:50;;;;;;;10.93;5.97;;;-6.60;99.90;;;;;;5033935;28;20056;-65
2022/12/18 07:59:16;;;;;;;11.77;7.50;;;-6.30;99.90;;;;;;5051796;28;20041;-65
2022/12/18 08:01:42;;;;;;;13.30;7.73;;;-6.40;99.90;;;;;;5051705;28;20102;-64
2022/12/18 08:04:07;;;;;;;13.30;6.80;;;-6.40;99.90;;;;;;5051567;28;20033;-65
2022/12/18 08:06:33;;;;;;;11.80;7.33;;;-6.30;99.90;;;;;;5051709;28;20045;-64
2022/12/18 08:08:58;;;;;;;6.77;5.83;;;-6.30;99.90;;;;;;5051658;28;20068;-66
2022/12/18 08:11:26;;;;;;;7.53;5.03;;;-6.20;99.90;;;;;;5051653;28;20051;-64
2022/12/18 08:13:52;;;;;;;8.80;6.23;;;-6.10;99.90;;;;;;5033422;28;20088;-65
2022/12/18 08:16:18;;;;;;;10.83;5.70;;;-6.10;99.90;;;;;;5051434;28;20037;-66
2022/12/18 08:18:44;;;;;;;9.70;5.63;;;-6.00;99.90;;;;;;5033622;28;20484;-64
2022/12/18 08:21:20;;;;;;;12.07;7.23;;;-5.50;99.90;;;;;;5033360;28;20053;-66
2022/12/18 08:23:46;;;;;;;8.70;6.17;;;-5.90;99.90;;;;;;5033317;28;20045;-67
2022/12/18 08:26:12;;;;;;;13.00;7.20;;;-5.80;99.90;;;;;;5033295;28;20066;-66
2022/12/18 08:28:38;;;;;;;15.03;8.30;;;-5.80;99.90;;;;;;5033317;28;20051;-67
2022/12/18 08:31:04;;;;;;;8.47;5.43;;;-5.80;99.90;;;;;;5051156;28;20131;-67
2022/12/18 08:33:30;;;;;;;12.67;7.43;;;-5.80;99.90;;;;;;5051353;28;20045;-66
2022/12/18 08:35:57;;;;;;;12.90;7.70;;;-5.70;99.90;;;;;;5033198;28;20488;-67
2022/12/18 08:38:23;;;;;;;13.63;6.93;;;-5.20;99.90;;;;;;5033229;28;20080;-68
2022/12/18 08:40:48;;;;;;;11.50;6.73;;;-5.70;99.90;;;;;;5051333;28;20530;-66
2022/12/18 08:45:58;;;;;;;8.67;5.40;;;-5.70;99.90;;;;;;5051395;28;20045;-68
2022/12/18 08:48:23;;;;;;;14.47;6.93;;;-5.70;99.90;;;;;;5033336;28;20041;-67
2022/12/18 08:50:59;;;;;;;9.70;6.77;;;-5.60;99.90;;;;;;5033938;28;20484;-67
2022/12/18 08:53:25;;;;;;;13.93;7.00;;;-5.60;99.90;;;;;;5033588;28;20053;-66
2022/12/18 08:55:51;;;;;;;8.83;5.93;;;-5.50;99.90;;;;;;5033208;28;20037;-66
2022/12/18 08:58:17;;;;;;;13.50;6.50;;;-5.20;99.90;;;;;;5051422;28;20529;-66
2022/12/18 09:00:43;;;;;;;8.73;5.20;;;-5.50;99.90;;;;;;5053194;28;20072;-67
2022/12/18 09:03:17;;;;;;;10.73;6.57;;;-5.40;99.90;;;;;;5036812;28;20033;-66
2022/12/18 09:05:43;;;;;;;10.88;5.50;;;-5.20;99.90;;;;;;5054591;28;20103;-66
2022/12/18 09:08:09;;;;;;;12.37;5.87;;;-5.30;99.90;;;;;;5054822;28;20041;-66
2022/12/18 09:10:40;;;;;;;9.77;5.57;;;-5.20;99.90;;;;;;5054504;28;20525;-66
2022/12/18 09:13:06;;;;;;;13.73;6.63;;;-5.20;99.90;;;;;;5054491;28;20044;-66
2022/12/18 09:15:31;;;;;;;8.30;5.47;;;-5.00;99.90;;;;;;5036574;28;20045;-66
2022/12/18 09:17:57;;;;;;;23.83;7.47;;;-4.60;99.90;;;;;;5054645;28;20169;-66
2022/12/18 09:20:23;;;;;;;5.83;5.03;;;-4.90;99.90;;;;;;5054664;28;20045;-67
2022/12/18 09:22:48;;;;;;;10.68;5.57;;;-4.80;99.90;;;;;;5036448;28;20393;-68
2022/12/18 09:25:14;;;;;;;7.93;5.73;;;-4.80;99.90;;;;;;5054528;28;20037;-67
2022/12/18 09:27:39;;;;;;;9.33;5.07;;;-4.80;99.90;;;;;;5036708;28;20496;-67
2022/12/18 09:30:06;;;;;;;10.57;5.93;;;-4.70;99.90;;;;;;5054042;28;20077;-66
2022/12/18 09:32:31;;;;;;;11.93;5.50;;;-4.60;99.90;;;;;;5036136;28;20044;-67
2022/12/18 09:34:57;;;;;;;8.18;4.55;;;-4.50;99.90;;;;;;5054018;28;20048;-68
2022/12/18 09:37:22;;;;;;;4.90;4.30;;;-4.20;99.90;;;;;;5054192;28;20119;-67
2022/12/18 09:39:48;;;;;;;7.70;5.20;;;-4.40;99.90;;;;;;5054068;28;20037;-68
2022/12/18 09:42:24;;;;;;;10.52;4.97;;;-4.20;99.90;;;;;;5035947;28;20590;-67
2022/12/18 09:44:52;;;;;;;4.07;3.03;;;-4.20;99.90;;;;;;5036187;28;20519;-68
2022/12/18 09:47:30;;;;;;;8.93;4.87;;;-4.10;99.90;;;;;;5053986;28;20036;-68
2022/12/18 09:50:03;;;;;;;12.88;5.28;;;-4.00;99.90;;;;;;5036158;28;20048;-67
2022/12/18 09:52:44;;;;;;;5.82;3.95;;;-3.90;99.90;;;;;;5035996;28;20037;-67
2022/12/18 09:55:31;;;;;;;10.45;4.75;;;-3.80;99.90;;;;;;5035817;28;20056;-67
2022/12/18 09:58:02;;;;;;;15.13;5.10;;;-3.80;99.90;;;;;;5019127;28;20053;-68
2022/12/18 10:00:28;;;;;;;6.07;3.95;;;-3.70;99.90;;;;;;5035850;28;20041;-68
2022/12/18 10:03:00;;;;;;;7.00;3.83;;;-3.60;99.90;;;;;;5035660;28;20091;-68
2022/12/18 10:05:47;;;;;;;7.80;4.18;;;-3.60;99.90;;;;;;5053341;28;20455;-67
2022/12/18 10:08:23;;;;;;;6.28;4.03;;;-3.60;99.90;;;;;;5035702;28;20048;-67
2022/12/18 10:11:01;;;;;;;11.13;4.68;;;-3.50;99.90;;;;;;5053448;28;20073;-67
2022/12/18 10:13:49;;;;;;;8.65;4.20;;;-3.50;99.90;;;;;;5053477;28;20441;-67
2022/12/18 10:16:27;;;;;;;9.93;4.10;;;-3.20;99.90;;;;;;5053358;28;20479;-67
2022/12/18 10:19:16;;;;;;;8.23;4.18;;;-3.50;99.90;;;;;;5035253;28;20137;-67
2022/12/18 10:22:10;;;;;;;6.80;3.92;;;-3.50;99.90;;;;;;5012235;28;20049;-67
2022/12/18 10:24:42;;;;;;;17.02;3.63;;;-3.50;99.90;;;;;;5035168;28;20400;-67
2022/12/18 10:27:24;;;;;;;8.18;3.55;;;-3.50;99.90;;;;;;5053014;28;20053;-66
2022/12/18 10:29:49;;;;;;;8.15;4.35;;;-3.50;99.90;;;;;;5035151;28;20045;-67
2022/12/18 10:32:22;;;;;;;5.63;4.05;;;-3.50;99.90;;;;;;5053000;28;20059;-67
2022/12/18 10:34:49;;;;;;;7.40;4.28;;;-3.20;99.90;;;;;;5035053;28;20170;-66
2022/12/18 10:37:21;;;;;;;10.25;4.15;;;-3.40;99.90;;;;;;5052603;28;20049;-67
2022/12/18 10:40:23;;;;;;;9.85;3.80;;;-3.10;99.90;;;;;;5035015;28;20041;-67
2022/12/18 10:43:11;;;;;;;4.07;3.38;;;-3.30;99.90;;;;;;5052970;28;20041;-66
2022/12/18 10:45:36;;;;;;;6.25;3.80;;;-3.30;99.90;;;;;;5052943;28;20124;-66
2022/12/18 10:48:03;;;;;;;4.80;3.65;;;-3.30;99.90;;;;;;5052639;28;20052;-67
2022/12/18 10:50:35;;;;;;;5.47;3.92;;;-3.20;99.90;;;;;;5034823;28;20044;-66
2022/12/18 10:53:04;;;;;;;5.88;3.08;;;-3.20;99.90;;;;;;5034615;28;20044;-66
2022/12/18 10:55:35;;;;;;;5.55;3.88;;;-3.00;99.90;;;;;;5034532;28;20052;-66
2022/12/18 10:58:27;;;;;;;4.65;3.40;;;-3.00;99.90;;;;;;5034367;28;20076;-66
2022/12/18 11:01:26;;;;;;;4.78;3.42;;;-3.00;99.90;;;;;;5034596;28;20051;-66
2022/12/18 11:03:55;;;;;;;3.95;3.10;;;-2.90;99.90;;;;;;5034144;28;20476;-67
2022/12/18 11:06:24;;;;;;;2.90;2.13;;;-2.80;99.90;;;;;;5051827;28;20102;-67
2022/12/18 11:09:05;;;;;;;6.10;4.10;;;-2.70;99.90;;;;;;5052002;28;20052;-67
2022/12/18 11:11:32;;;;;;;;;;;-2.60;99.90;;;;;;5052629;28;20510;-67
2022/12/18 11:14:06;;;;;;;4.30;2.53;;;-2.60;99.90;;;;;;5051874;28;19927;-66
2022/12/18 11:16:44;;;;;;;6.75;3.03;;;-2.50;99.90;;;;;;5052109;28;20048;-66
2022/12/18 11:19:37;;;;;;;5.20;3.92;;;-2.40;99.90;;;;;;5052025;28;20171;-66
2022/12/18 11:22:22;;;;;;;3.53;2.30;;;-2.40;99.90;;;;;;5051885;28;20037;-67
2022/12/18 11:25:21;;;;;;;4.20;2.63;;;-2.30;99.90;;;;;;5051733;28;20033;-67
2022/12/18 11:27:56;;;;;;;6.05;2.42;;;-2.10;99.90;;;;;;5007719;28;20431;-67
2022/12/18 11:30:29;;;;;;;4.78;3.22;;;-2.20;99.90;;;;;;5052269;28;20476;-67
2022/12/18 11:33:16;;;;;;;6.50;2.75;;;-2.10;99.90;;;;;;5052162;28;20492;-67
2022/12/18 11:35:55;;;;;;;5.40;2.88;;;-2.00;99.90;;;;;;5034283;28;20037;-66
2022/12/18 11:38:34;;;;;;;4.75;3.13;;;-2.00;99.90;;;;;;5051977;28;20041;-66
2022/12/18 11:44:24;;;;;;;6.72;2.58;;;-1.90;99.90;;;;;;5033882;28;20095;-66
2022/12/18 11:46:56;;;;;;;4.18;2.55;;;-1.90;99.90;;;;;;5052020;28;20099;-66
2022/12/18 11:49:34;;;;;;;2.83;2.28;;;-1.80;99.90;;;;;;5052091;28;20037;-66
2022/12/18 11:52:23;;;;;;;6.25;3.00;;;-1.80;99.90;;;;;;5051726;28;20080;-66
2022/12/18 11:54:59;;;;;;;10.57;3.60;;;-1.80;99.90;;;;;;5034256;28;20037;-66
2022/12/18 11:58:03;;;;;;;3.72;2.40;;;-1.70;99.90;;;;;;5051405;28;20045;-67
2022/12/18 12:00:28;;;;;;;7.00;2.80;;;-1.70;99.90;;;;;;5010099;28;20048;-66
2022/12/18 12:03:15;;;;;;;4.55;2.90;;;-1.70;99.90;;;;;;5034049;28;20053;-67
2022/12/18 12:06:10;;;;;;;5.28;3.08;;;-1.70;99.90;;;;;;5051551;28;20124;-67
2022/12/18 12:09:03;;;;;;;3.53;2.50;;;-1.60;99.90;;;;;;5033815;28;20057;-66
2022/12/18 12:12:00;;;;;;;4.25;2.38;;;-1.60;99.90;;;;;;5017209;28;20385;-66
2022/12/18 12:14:28;;;;;;;8.27;1.95;;;-1.60;99.90;;;;;;5051304;28;20044;-67
2022/12/18 12:17:18;;;;;;;4.40;2.70;;;-1.50;99.90;;;;;;5033600;28;20522;-65
2022/12/18 12:20:15;;;;;;;5.32;2.80;;;-1.50;99.90;;;;;;5051683;28;20053;-67
2022/12/18 12:23:01;;;;;;;6.63;2.95;;;-1.40;99.90;;;;;;5033505;28;20090;-65
2022/12/18 12:25:48;;;;;;;4.95;2.78;;;-1.40;99.90;;;;;;5033806;28;20044;-64
2022/12/18 12:28:33;;;;;;;2.60;1.50;;;-1.30;99.90;;;;;;5033382;28;20052;-66
2022/12/18 12:31:25;;;;;;;6.38;3.20;;;-1.20;99.90;;;;;;5033142;28;20108;-65
2022/12/18 12:34:16;;;;;;;3.72;2.38;;;-1.30;99.90;;;;;;5051088;28;20130;-65
2022/12/18 12:37:17;;;;;;;3.40;1.83;;;-1.20;99.90;;;;;;5054729;28;20036;-66
2022/12/18 12:39:45;;;;;;;4.38;2.35;;;-1.20;99.90;;;;;;5026235;28;20134;-65
2022/12/18 12:45:14;;;;;;;4.80;2.53;;;-1.10;99.90;;;;;;5036931;28;20048;-66
2022/12/18 12:47:44;;;;;;;3.08;1.83;;;-1.00;99.90;;;;;;5036712;28;20143;-66
2022/12/18 12:50:18;;;;;;;6.68;2.10;;;-1.00;99.90;;;;;;5036649;28;20053;-66
2022/12/18 12:52:54;;;;;;;6.47;2.90;;;-1.00;99.90;;;;;;5036670;28;20045;-65
2022/12/18 12:55:23;;;;;;;2.97;2.10;;;-1.00;99.90;;;;;;5054707;28;20415;-66
2022/12/18 12:58:18;;;;;;;7.47;3.20;;;-0.90;99.90;;;;;;5019889;28;20049;-67
2022/12/18 13:00:54;;;;;;;4.55;3.05;;;-0.90;99.90;;;;;;5036681;28;20278;-66
2022/12/18 13:03:36;;;;;;;6.32;2.60;;;-0.90;99.90;;;;;;5036516;28;20048;-67
2022/12/18 13:06:14;;;;;;;4.50;2.03;;;-0.90;99.90;;;;;;5054183;28;20427;-67
2022/12/18 13:08:59;;;;;;;3.30;2.05;;;-0.80;99.90;;;;;;5054520;28;20429;-67
2022/12/18 13:14:39;;;;;;;6.70;3.30;;;-0.80;99.90;;;;;;5054534;28;20401;-67
2022/12/18 13:17:14;;;;;;;3.85;2.28;;;-0.80;99.90;;;;;;5054419;28;20488;-67